sensor_id;sensor_type;location;lat;lon;timestamp;pressure;altitude;pressure_sealevel;temperature;humidity
44148;BME280;29810;55.848;37.368;2023-03-03T00:01:34;97679.41;;;-0.85;91.39
44148;BME280;29810;55.848;37.368;2023-03-03T00:04:36;97676.00;;;-0.84;91.41
44148;BME280;29810;55.848;37.368;2023-03-03T00:07:37;97669.19;;;-0.85;91.39
44148;BME280;29810;55.848;37.368;2023-03-03T00:10:39;97675.19;;;-0.86;91.57
44148;BME280;29810;55.848;37.368;2023-03-03T00:13:51;97671.78;;;-0.88;91.96
44148;BME280;29810;55.848;37.368;2023-03-03T00:16:55;97667.44;;;-0.83;91.98
44148;BME280;29810;55.848;37.368;2023-03-03T00:19:57;97665.88;;;-0.92;92.10
44148;BME280;29810;55.848;37.368;2023-03-03T00:23:25;97656.44;;;-0.88;92.36
44148;BME280;29810;55.848;37.368;2023-03-03T00:26:37;97660.59;;;-0.81;92.51
44148;BME280;29810;55.848;37.368;2023-03-03T00:29:45;97652.16;;;-0.86;92.42
44148;BME280;29810;55.848;37.368;2023-03-03T00:32:48;97641.94;;;-0.89;92.67
44148;BME280;29810;55.848;37.368;2023-03-03T00:35:56;97642.97;;;-0.98;92.97
44148;BME280;29810;55.848;37.368;2023-03-03T00:42:22;97636.81;;;-0.86;93.33
44148;BME280;29810;55.848;37.368;2023-03-03T00:45:42;97618.78;;;-0.78;93.11
44148;BME280;29810;55.848;37.368;2023-03-03T00:48:47;97625.50;;;-0.73;92.80
44148;BME280;29810;55.848;37.368;2023-03-03T00:51:48;97610.31;;;-0.84;92.72
44148;BME280;29810;55.848;37.368;2023-03-03T00:54:50;97616.22;;;-0.78;92.91
44148;BME280;29810;55.848;37.368;2023-03-03T00:57:52;97613.78;;;-0.86;93.15
44148;BME280;29810;55.848;37.368;2023-03-03T01:00:55;97609.47;;;-0.84;94.10
44148;BME280;29810;55.848;37.368;2023-03-03T01:03:57;97599.94;;;-0.74;94.82
44148;BME280;29810;55.848;37.368;2023-03-03T01:06:59;97600.81;;;-0.77;95.08
44148;BME280;29810;55.848;37.368;2023-03-03T01:10:01;97593.06;;;-0.74;95.62
44148;BME280;29810;55.848;37.368;2023-03-03T01:13:04;97596.41;;;-0.69;95.87
44148;BME280;29810;55.848;37.368;2023-03-03T01:16:06;97592.37;;;-0.82;95.93
44148;BME280;29810;55.848;37.368;2023-03-03T01:19:08;97580.59;;;-0.92;96.66
44148;BME280;29810;55.848;37.368;2023-03-03T01:22:09;97584.75;;;-0.87;97.30
44148;BME280;29810;55.848;37.368;2023-03-03T01:25:11;97562.06;;;-1.05;97.13
44148;BME280;29810;55.848;37.368;2023-03-03T01:28:13;97592.41;;;-0.84;97.77
44148;BME280;29810;55.848;37.368;2023-03-03T01:31:15;97597.38;;;-0.74;98.06
44148;BME280;29810;55.848;37.368;2023-03-03T01:34:16;97591.38;;;-0.75;97.96
44148;BME280;29810;55.848;37.368;2023-03-03T01:37:18;97592.13;;;-0.67;98.01
44148;BME280;29810;55.848;37.368;2023-03-03T01:40:23;97595.50;;;-0.66;97.88
44148;BME280;29810;55.848;37.368;2023-03-03T01:43:28;97597.09;;;-0.60;98.08
44148;BME280;29810;55.848;37.368;2023-03-03T01:46:58;97581.75;;;-0.60;97.92
44148;BME280;29810;55.848;37.368;2023-03-03T01:50:02;97576.44;;;-0.49;97.96
44148;BME280;29810;55.848;37.368;2023-03-03T01:53:09;97573.19;;;-0.59;97.57
44148;BME280;29810;55.848;37.368;2023-03-03T01:56:12;97578.22;;;-0.53;97.72
44148;BME280;29810;55.848;37.368;2023-03-03T01:59:20;97567.28;;;-0.61;97.20
44148;BME280;29810;55.848;37.368;2023-03-03T02:02:24;97579.13;;;-0.56;96.76
44148;BME280;29810;55.848;37.368;2023-03-03T02:05:28;97568.03;;;-0.58;97.74
44148;BME280;29810;55.848;37.368;2023-03-03T02:08:36;97557.00;;;-0.60;97.77
44148;BME280;29810;55.848;37.368;2023-03-03T02:11:41;97549.97;;;-0.50;97.74
44148;BME280;29810;55.848;37.368;2023-03-03T02:14:43;97547.31;;;-0.44;97.55
44148;BME280;29810;55.848;37.368;2023-03-03T02:17:46;97545.72;;;-0.51;96.86
44148;BME280;29810;55.848;37.368;2023-03-03T02:24:32;97529.59;;;-0.55;97.02
44148;BME280;29810;55.848;37.368;2023-03-03T02:27:35;97521.94;;;-0.56;96.95
44148;BME280;29810;55.848;37.368;2023-03-03T02:30:39;97529.59;;;-0.55;97.42
44148;BME280;29810;55.848;37.368;2023-03-03T02:33:42;97526.25;;;-0.58;96.69
44148;BME280;29810;55.848;37.368;2023-03-03T02:36:45;97531.22;;;-0.51;97.08
44148;BME280;29810;55.848;37.368;2023-03-03T02:39:46;97503.13;;;-0.55;96.88
44148;BME280;29810;55.848;37.368;2023-03-03T02:42:52;97526.56;;;-0.31;97.33
44148;BME280;29810;55.848;37.368;2023-03-03T02:45:54;97515.22;;;-0.18;96.33
44148;BME280;29810;55.848;37.368;2023-03-03T02:48:59;97511.78;;;-0.19;95.42
44148;BME280;29810;55.848;37.368;2023-03-03T02:52:02;97505.12;;;-0.26;96.28
44148;BME280;29810;55.848;37.368;2023-03-03T02:55:06;97507.38;;;-0.12;96.67
44148;BME280;29810;55.848;37.368;2023-03-03T02:58:08;97495.69;;;-0.24;96.09
44148;BME280;29810;55.848;37.368;2023-03-03T03:01:10;97505.91;;;-0.22;96.53
44148;BME280;29810;55.848;37.368;2023-03-03T03:04:15;97502.22;;;-0.09;97.29
44148;BME280;29810;55.848;37.368;2023-03-03T03:07:18;97507.28;;;-0.07;97.14
44148;BME280;29810;55.848;37.368;2023-03-03T03:10:19;97498.94;;;-0.17;97.07
44148;BME280;29810;55.848;37.368;2023-03-03T03:13:24;97499.66;;;-0.09;97.76
44148;BME280;29810;55.848;37.368;2023-03-03T03:16:26;97501.47;;;-0.14;97.75
44148;BME280;29810;55.848;37.368;2023-03-03T03:19:31;97494.69;;;-0.17;97.87
44148;BME280;29810;55.848;37.368;2023-03-03T03:22:34;97496.66;;;-0.29;97.74
44148;BME280;29810;55.848;37.368;2023-03-03T03:25:37;97502.59;;;-0.27;98.23
44148;BME280;29810;55.848;37.368;2023-03-03T03:28:46;97499.28;;;-0.32;98.42
44148;BME280;29810;55.848;37.368;2023-03-03T03:31:49;97489.75;;;-0.26;98.81
44148;BME280;29810;55.848;37.368;2023-03-03T03:34:50;97491.31;;;-0.19;99.16
44148;BME280;29810;55.848;37.368;2023-03-03T03:37:52;97488.66;;;-0.14;99.11
44148;BME280;29810;55.848;37.368;2023-03-03T03:40:54;97490.34;;;-0.13;98.99
44148;BME280;29810;55.848;37.368;2023-03-03T03:43:56;97488.84;;;-0.23;98.90
44148;BME280;29810;55.848;37.368;2023-03-03T03:46:57;97487.19;;;-0.26;99.24
44148;BME280;29810;55.848;37.368;2023-03-03T03:49:59;97478.66;;;-0.26;99.35
44148;BME280;29810;55.848;37.368;2023-03-03T03:53:00;97480.22;;;-0.19;99.57
44148;BME280;29810;55.848;37.368;2023-03-03T03:56:04;97479.50;;;-0.26;99.15
44148;BME280;29810;55.848;37.368;2023-03-03T03:59:06;97472.94;;;-0.38;99.29
44148;BME280;29810;55.848;37.368;2023-03-03T04:02:09;97455.97;;;-0.43;99.85
44148;BME280;29810;55.848;37.368;2023-03-03T04:05:11;97469.53;;;-0.40;99.93
44148;BME280;29810;55.848;37.368;2023-03-03T04:08:14;97451.94;;;-0.55;100.00
44148;BME280;29810;55.848;37.368;2023-03-03T04:11:16;97462.13;;;-0.52;100.00
44148;BME280;29810;55.848;37.368;2023-03-03T04:14:18;97464.69;;;-0.54;100.00
44148;BME280;29810;55.848;37.368;2023-03-03T04:17:21;97457.91;;;-0.55;100.00
44148;BME280;29810;55.848;37.368;2023-03-03T04:20:25;97457.31;;;-0.68;100.00
44148;BME280;29810;55.848;37.368;2023-03-03T04:23:28;97463.06;;;-0.58;100.00
44148;BME280;29810;55.848;37.368;2023-03-03T04:26:29;97463.78;;;-0.51;100.00
44148;BME280;29810;55.848;37.368;2023-03-03T04:29:33;97463.75;;;-0.48;100.00
44148;BME280;29810;55.848;37.368;2023-03-03T04:32:34;97460.66;;;-0.65;100.00
44148;BME280;29810;55.848;37.368;2023-03-03T04:35:38;97462.31;;;-0.61;100.00
44148;BME280;29810;55.848;37.368;2023-03-03T04:38:40;97459.75;;;-0.63;100.00
44148;BME280;29810;55.848;37.368;2023-03-03T04:41:42;97459.16;;;-0.74;99.87
44148;BME280;29810;55.848;37.368;2023-03-03T04:44:44;97446.25;;;-0.70;100.00
44148;BME280;29810;55.848;37.368;2023-03-03T04:47:45;97444.31;;;-0.58;100.00
44148;BME280;29810;55.848;37.368;2023-03-03T04:50:48;97443.50;;;-0.60;100.00
44148;BME280;29810;55.848;37.368;2023-03-03T04:53:51;97463.63;;;-0.42;100.00
44148;BME280;29810;55.848;37.368;2023-03-03T04:56:53;97454.16;;;-0.38;100.00
44148;BME280;29810;55.848;37.368;2023-03-03T04:59:55;97456.75;;;-0.40;100.00
44148;BME280;29810;55.848;37.368;2023-03-03T05:02:56;97453.38;;;-0.42;100.00
44148;BME280;29810;55.848;37.368;2023-03-03T05:05:59;97449.19;;;-0.46;100.00
44148;BME280;29810;55.848;37.368;2023-03-03T05:09:02;97458.66;;;-0.49;99.65
44148;BME280;29810;55.848;37.368;2023-03-03T05:12:04;97462.78;;;-0.42;100.00
44148;BME280;29810;55.848;37.368;2023-03-03T05:15:06;97465.97;;;-0.31;100.00
44148;BME280;29810;55.848;37.368;2023-03-03T05:18:08;97467.69;;;-0.33;100.00
44148;BME280;29810;55.848;37.368;2023-03-03T05:21:09;97473.56;;;-0.28;100.00
44148;BME280;29810;55.848;37.368;2023-03-03T05:24:12;97473.69;;;-0.32;99.24
44148;BME280;29810;55.848;37.368;2023-03-03T05:27:14;97470.97;;;-0.25;99.99
44148;BME280;29810;55.848;37.368;2023-03-03T05:30:16;97481.75;;;-0.12;100.00
44148;BME280;29810;55.848;37.368;2023-03-03T05:33:17;97475.84;;;-0.14;99.37
44148;BME280;29810;55.848;37.368;2023-03-03T05:36:19;97475.72;;;-0.09;99.24
44148;BME280;29810;55.848;37.368;2023-03-03T05:39:21;97472.50;;;-0.18;97.95
44148;BME280;29810;55.848;37.368;2023-03-03T05:42:23;97469.28;;;-0.26;97.59
44148;BME280;29810;55.848;37.368;2023-03-03T05:45:25;97461.63;;;-0.29;98.00
44148;BME280;29810;55.848;37.368;2023-03-03T05:48:27;97472.78;;;-0.30;98.28
44148;BME280;29810;55.848;37.368;2023-03-03T05:51:30;97471.72;;;-0.20;98.25
44148;BME280;29810;55.848;37.368;2023-03-03T05:54:31;97476.84;;;-0.21;98.10
44148;BME280;29810;55.848;37.368;2023-03-03T05:57:33;97468.78;;;-0.04;98.61
44148;BME280;29810;55.848;37.368;2023-03-03T06:00:36;97473.66;;;0.08;98.80
44148;BME280;29810;55.848;37.368;2023-03-03T06:03:38;97465.97;;;0.08;98.26
44148;BME280;29810;55.848;37.368;2023-03-03T06:06:40;97476.31;;;0.04;97.18
44148;BME280;29810;55.848;37.368;2023-03-03T06:09:42;97481.44;;;0.04;97.25
44148;BME280;29810;55.848;37.368;2023-03-03T06:12:43;97476.09;;;0.13;97.55
44148;BME280;29810;55.848;37.368;2023-03-03T06:15:45;97480.03;;;0.28;97.83
44148;BME280;29810;55.848;37.368;2023-03-03T06:18:46;97484.44;;;0.23;96.26
44148;BME280;29810;55.848;37.368;2023-03-03T06:21:48;97468.84;;;0.32;96.83
44148;BME280;29810;55.848;37.368;2023-03-03T06:24:49;97486.16;;;0.58;96.91
44148;BME280;29810;55.848;37.368;2023-03-03T06:27:53;97483.00;;;0.48;95.48
44148;BME280;29810;55.848;37.368;2023-03-03T06:30:55;97485.78;;;0.38;94.97
44148;BME280;29810;55.848;37.368;2023-03-03T06:33:57;97484.03;;;0.40;95.10
44148;BME280;29810;55.848;37.368;2023-03-03T06:36:58;97484.47;;;0.57;95.94
44148;BME280;29810;55.848;37.368;2023-03-03T06:40:00;97480.94;;;0.63;95.69
44148;BME280;29810;55.848;37.368;2023-03-03T06:43:01;97486.47;;;0.44;93.78
44148;BME280;29810;55.848;37.368;2023-03-03T06:46:04;97493.56;;;0.35;94.18
44148;BME280;29810;55.848;37.368;2023-03-03T06:49:06;97491.88;;;0.33;94.00
44148;BME280;29810;55.848;37.368;2023-03-03T06:52:11;97498.50;;;0.42;95.29
44148;BME280;29810;55.848;37.368;2023-03-03T06:55:17;97482.81;;;0.56;94.76
44148;BME280;29810;55.848;37.368;2023-03-03T06:58:22;97490.09;;;0.72;91.67
44148;BME280;29810;55.848;37.368;2023-03-03T07:01:24;97489.94;;;0.43;93.37
44148;BME280;29810;55.848;37.368;2023-03-03T07:04:33;97497.81;;;0.36;94.48
44148;BME280;29810;55.848;37.368;2023-03-03T07:07:34;97507.28;;;0.32;93.21
44148;BME280;29810;55.848;37.368;2023-03-03T07:10:37;97504.66;;;0.35;94.44
44148;BME280;29810;55.848;37.368;2023-03-03T07:13:43;97505.59;;;0.31;93.06
44148;BME280;29810;55.848;37.368;2023-03-03T07:16:51;97498.94;;;0.22;94.01
44148;BME280;29810;55.848;37.368;2023-03-03T07:19:54;97503.69;;;0.39;93.76
44148;BME280;29810;55.848;37.368;2023-03-03T07:22:57;97502.53;;;0.53;93.75
44148;BME280;29810;55.848;37.368;2023-03-03T07:25:58;97504.19;;;0.55;93.53
44148;BME280;29810;55.848;37.368;2023-03-03T07:29:23;97505.66;;;0.65;93.43
44148;BME280;29810;55.848;37.368;2023-03-03T07:35:40;97493.41;;;0.77;93.03
44148;BME280;29810;55.848;37.368;2023-03-03T07:38:52;97503.41;;;0.86;91.04
44148;BME280;29810;55.848;37.368;2023-03-03T07:42:24;97502.78;;;0.78;90.75
44148;BME280;29810;55.848;37.368;2023-03-03T07:45:35;97507.50;;;0.95;87.76
44148;BME280;29810;55.848;37.368;2023-03-03T07:48:39;97505.12;;;0.87;91.45
44148;BME280;29810;55.848;37.368;2023-03-03T07:51:41;97514.56;;;0.87;92.17
44148;BME280;29810;55.848;37.368;2023-03-03T07:54:44;97504.62;;;0.73;92.41
44148;BME280;29810;55.848;37.368;2023-03-03T07:57:49;97506.41;;;0.71;90.11
44148;BME280;29810;55.848;37.368;2023-03-03T08:07:36;97511.13;;;0.88;90.82
44148;BME280;29810;55.848;37.368;2023-03-03T08:10:46;97510.53;;;0.76;90.95
44148;BME280;29810;55.848;37.368;2023-03-03T08:13:48;97510.56;;;0.75;88.39
44148;BME280;29810;55.848;37.368;2023-03-03T08:16:51;97514.06;;;0.72;91.97
44148;BME280;29810;55.848;37.368;2023-03-03T08:19:53;97515.75;;;0.72;89.01
44148;BME280;29810;55.848;37.368;2023-03-03T08:22:55;97518.94;;;0.81;90.83
44148;BME280;29810;55.848;37.368;2023-03-03T08:25:57;97516.56;;;1.08;92.76
44148;BME280;29810;55.848;37.368;2023-03-03T08:28:59;97520.09;;;1.04;90.82
44148;BME280;29810;55.848;37.368;2023-03-03T08:32:01;97519.34;;;1.34;91.76
44148;BME280;29810;55.848;37.368;2023-03-03T08:35:03;97525.31;;;1.65;91.71
44148;BME280;29810;55.848;37.368;2023-03-03T08:38:05;97516.28;;;1.82;90.62
44148;BME280;29810;55.848;37.368;2023-03-03T08:41:07;97523.19;;;2.10;89.75
44148;BME280;29810;55.848;37.368;2023-03-03T08:44:09;97524.28;;;2.03;89.09
44148;BME280;29810;55.848;37.368;2023-03-03T08:47:12;97524.34;;;1.99;83.95
44148;BME280;29810;55.848;37.368;2023-03-03T08:50:14;97524.44;;;1.96;88.03
44148;BME280;29810;55.848;37.368;2023-03-03T08:53:17;97537.84;;;1.76;88.46
44148;BME280;29810;55.848;37.368;2023-03-03T08:56:19;97527.12;;;1.92;89.94
44148;BME280;29810;55.848;37.368;2023-03-03T08:59:21;97528.09;;;2.18;90.19
44148;BME280;29810;55.848;37.368;2023-03-03T09:02:23;97526.31;;;2.48;89.32
44148;BME280;29810;55.848;37.368;2023-03-03T09:05:25;97520.50;;;2.70;87.67
44148;BME280;29810;55.848;37.368;2023-03-03T09:08:27;97512.59;;;2.76;89.57
44148;BME280;29810;55.848;37.368;2023-03-03T09:11:29;97528.22;;;2.96;87.93
44148;BME280;29810;55.848;37.368;2023-03-03T09:14:30;97512.03;;;2.93;88.81
44148;BME280;29810;55.848;37.368;2023-03-03T09:17:34;97529.78;;;2.47;88.34
44148;BME280;29810;55.848;37.368;2023-03-03T09:20:39;97523.16;;;2.40;89.35
44148;BME280;29810;55.848;37.368;2023-03-03T09:23:41;97533.19;;;2.19;87.52
44148;BME280;29810;55.848;37.368;2023-03-03T09:26:47;97532.09;;;2.28;88.55
44148;BME280;29810;55.848;37.368;2023-03-03T09:29:50;97530.16;;;2.35;88.68
44148;BME280;29810;55.848;37.368;2023-03-03T09:32:52;97532.03;;;2.29;90.55
44148;BME280;29810;55.848;37.368;2023-03-03T09:36:21;97538.47;;;2.44;90.42
44148;BME280;29810;55.848;37.368;2023-03-03T09:39:25;97539.69;;;2.86;85.77
44148;BME280;29810;55.848;37.368;2023-03-03T09:46:35;97543.25;;;2.55;84.67
44148;BME280;29810;55.848;37.368;2023-03-03T09:49:34;97545.22;;;2.47;84.94
44148;BME280;29810;55.848;37.368;2023-03-03T09:55:59;97550.62;;;2.38;86.12
44148;BME280;29810;55.848;37.368;2023-03-03T09:59:26;97540.94;;;2.47;85.73
44148;BME280;29810;55.848;37.368;2023-03-03T10:06:07;97528.56;;;2.59;84.18
44148;BME280;29810;55.848;37.368;2023-03-03T10:19:44;97528.12;;;2.73;82.37
44148;BME280;29810;55.848;37.368;2023-03-03T10:22:59;97528.19;;;2.43;84.56
44148;BME280;29810;55.848;37.368;2023-03-03T10:36:19;97517.06;;;2.71;81.84
44148;BME280;29810;55.848;37.368;2023-03-03T10:43:22;97514.56;;;2.68;79.22
44148;BME280;29810;55.848;37.368;2023-03-03T10:46:57;97519.38;;;2.78;81.62
44148;BME280;29810;55.848;37.368;2023-03-03T10:53:07;97526.94;;;2.83;83.50
44148;BME280;29810;55.848;37.368;2023-03-03T10:56:37;97524.84;;;2.94;86.21
44148;BME280;29810;55.848;37.368;2023-03-03T11:06:01;97527.84;;;3.58;79.29
44148;BME280;29810;55.848;37.368;2023-03-03T11:12:35;97527.97;;;3.78;78.04
44148;BME280;29810;55.848;37.368;2023-03-03T11:22:16;97536.72;;;2.98;81.16
44148;BME280;29810;55.848;37.368;2023-03-03T11:31:55;97538.69;;;2.37;80.29
44148;BME280;29810;55.848;37.368;2023-03-03T11:41:41;97544.19;;;2.81;80.02
44148;BME280;29810;55.848;37.368;2023-03-03T11:44:52;97539.91;;;2.80;80.62
44148;BME280;29810;55.848;37.368;2023-03-03T11:49:00;97540.50;;;2.88;78.20
44148;BME280;29810;55.848;37.368;2023-03-03T11:54:58;97541.78;;;2.75;76.62
44148;BME280;29810;55.848;37.368;2023-03-03T11:58:28;97534.53;;;2.86;76.47
44148;BME280;29810;55.848;37.368;2023-03-03T12:01:59;97532.19;;;2.80;74.97
44148;BME280;29810;55.848;37.368;2023-03-03T12:05:12;97544.72;;;2.91;74.29
44148;BME280;29810;55.848;37.368;2023-03-03T12:18:42;97548.09;;;2.91;73.51
44148;BME280;29810;55.848;37.368;2023-03-03T12:31:28;97545.13;;;2.77;75.38
44148;BME280;29810;55.848;37.368;2023-03-03T12:34:45;97551.56;;;2.63;78.34
44148;BME280;29810;55.848;37.368;2023-03-03T12:38:14;97553.72;;;2.49;75.08
44148;BME280;29810;55.848;37.368;2023-03-03T12:45:36;97544.94;;;2.56;78.51
44148;BME280;29810;55.848;37.368;2023-03-03T12:48:40;97547.59;;;2.53;75.85
44148;BME280;29810;55.848;37.368;2023-03-03T12:52:07;97553.50;;;2.28;76.28
44148;BME280;29810;55.848;37.368;2023-03-03T13:12:31;97550.66;;;2.08;80.75
44148;BME280;29810;55.848;37.368;2023-03-03T13:15:38;97551.62;;;2.34;80.49
44148;BME280;29810;55.848;37.368;2023-03-03T13:18:53;97556.03;;;2.58;83.99
44148;BME280;29810;55.848;37.368;2023-03-03T13:22:26;97550.34;;;2.75;82.06
44148;BME280;29810;55.848;37.368;2023-03-03T13:32:13;97536.69;;;3.25;74.04
44148;BME280;29810;55.848;37.368;2023-03-03T13:38:46;97532.50;;;3.72;75.71
44148;BME280;29810;55.848;37.368;2023-03-03T13:44:59;97535.31;;;3.65;74.43
44148;BME280;29810;55.848;37.368;2023-03-03T13:58:48;97530.66;;;3.26;75.98
44148;BME280;29810;55.848;37.368;2023-03-03T14:05:15;97534.41;;;3.16;72.07
44148;BME280;29810;55.848;37.368;2023-03-03T14:12:04;97538.00;;;3.12;68.69
44148;BME280;29810;55.848;37.368;2023-03-03T14:15:17;97531.00;;;2.90;74.14
44148;BME280;29810;55.848;37.368;2023-03-03T14:19:00;97538.63;;;2.93;77.19
44148;BME280;29810;55.848;37.368;2023-03-03T14:22:18;97534.91;;;3.02;76.33
44148;BME280;29810;55.848;37.368;2023-03-03T14:25:25;97528.25;;;2.95;72.84
44148;BME280;29810;55.848;37.368;2023-03-03T14:28:36;97528.22;;;2.96;76.66
44148;BME280;29810;55.848;37.368;2023-03-03T14:31:40;97537.63;;;2.97;78.53
44148;BME280;29810;55.848;37.368;2023-03-03T14:34:43;97537.47;;;3.02;79.01
44148;BME280;29810;55.848;37.368;2023-03-03T14:37:49;97536.19;;;2.89;76.58
44148;BME280;29810;55.848;37.368;2023-03-03T14:41:19;97537.34;;;2.80;76.40
44148;BME280;29810;55.848;37.368;2023-03-03T14:47:28;97550.12;;;2.55;73.23
44148;BME280;29810;55.848;37.368;2023-03-03T14:50:41;97545.50;;;2.38;76.44
44148;BME280;29810;55.848;37.368;2023-03-03T14:53:46;97534.28;;;2.12;72.59
44148;BME280;29810;55.848;37.368;2023-03-03T15:00:41;97542.50;;;2.23;73.46
44148;BME280;29810;55.848;37.368;2023-03-03T15:03:46;97541.84;;;2.17;77.29
44148;BME280;29810;55.848;37.368;2023-03-03T15:06:51;97549.44;;;1.91;75.61
44148;BME280;29810;55.848;37.368;2023-03-03T15:09:55;97553.16;;;1.81;76.57
44148;BME280;29810;55.848;37.368;2023-03-03T15:12:58;97554.34;;;1.69;76.57
44148;BME280;29810;55.848;37.368;2023-03-03T15:16:10;97547.75;;;1.59;77.17
44148;BME280;29810;55.848;37.368;2023-03-03T15:36:03;97568.81;;;1.40;75.03
44148;BME280;29810;55.848;37.368;2023-03-03T15:39:22;97560.50;;;1.30;75.13
44148;BME280;29810;55.848;37.368;2023-03-03T15:45:44;97562.66;;;1.13;76.44
44148;BME280;29810;55.848;37.368;2023-03-03T15:52:19;97567.94;;;1.07;76.01
44148;BME280;29810;55.848;37.368;2023-03-03T15:55:36;97569.41;;;1.17;76.03
44148;BME280;29810;55.848;37.368;2023-03-03T16:05:14;97571.88;;;1.20;76.11
44148;BME280;29810;55.848;37.368;2023-03-03T16:12:25;97561.50;;;1.25;75.03
44148;BME280;29810;55.848;37.368;2023-03-03T16:15:47;97567.31;;;1.31;75.76
44148;BME280;29810;55.848;37.368;2023-03-03T16:19:02;97567.22;;;1.35;76.03
44148;BME280;29810;55.848;37.368;2023-03-03T16:39:32;97577.81;;;1.22;76.54
44148;BME280;29810;55.848;37.368;2023-03-03T16:42:35;97570.94;;;1.24;76.88
44148;BME280;29810;55.848;37.368;2023-03-03T16:45:38;97567.00;;;1.44;77.34
44148;BME280;29810;55.848;37.368;2023-03-03T16:48:53;97570.13;;;1.22;74.82
44148;BME280;29810;55.848;37.368;2023-03-03T16:52:22;97568.56;;;1.17;75.43
44148;BME280;29810;55.848;37.368;2023-03-03T16:55:31;97566.97;;;1.11;75.01
44148;BME280;29810;55.848;37.368;2023-03-03T17:05:41;97564.59;;;1.05;76.74
44148;BME280;29810;55.848;37.368;2023-03-03T17:12:41;97580.19;;;0.95;76.67
44148;BME280;29810;55.848;37.368;2023-03-03T17:22:53;97575.44;;;0.80;77.05
44148;BME280;29810;55.848;37.368;2023-03-03T17:29:37;97572.75;;;0.85;76.73
44148;BME280;29810;55.848;37.368;2023-03-03T17:36:11;97561.53;;;0.89;76.49
44148;BME280;29810;55.848;37.368;2023-03-03T17:45:49;97564.59;;;1.05;77.64
44148;BME280;29810;55.848;37.368;2023-03-03T17:59:10;97564.31;;;1.15;74.00
44148;BME280;29810;55.848;37.368;2023-03-03T18:02:39;97561.37;;;0.95;73.68
44148;BME280;29810;55.848;37.368;2023-03-03T18:16:10;97571.59;;;0.96;76.53
44148;BME280;29810;55.848;37.368;2023-03-03T18:19:48;97570.97;;;0.88;78.58
44148;BME280;29810;55.848;37.368;2023-03-03T18:22:56;97577.81;;;0.88;75.07
44148;BME280;29810;55.848;37.368;2023-03-03T18:26:28;97568.88;;;0.66;78.19
44148;BME280;29810;55.848;37.368;2023-03-03T18:29:32;97569.87;;;0.61;75.37
44148;BME280;29810;55.848;37.368;2023-03-03T18:32:58;97565.97;;;0.46;78.74
44148;BME280;29810;55.848;37.368;2023-03-03T18:36:13;97573.88;;;0.37;76.15
44148;BME280;29810;55.848;37.368;2023-03-03T18:42:40;97569.81;;;0.26;76.93
44148;BME280;29810;55.848;37.368;2023-03-03T18:45:48;97571.81;;;0.12;78.82
44148;BME280;29810;55.848;37.368;2023-03-03T18:48:53;97568.56;;;0.04;76.46
44148;BME280;29810;55.848;37.368;2023-03-03T18:52:22;97563.50;;;0.01;78.54
44148;BME280;29810;55.848;37.368;2023-03-03T18:55:28;97564.41;;;-0.02;78.23
44148;BME280;29810;55.848;37.368;2023-03-03T18:58:42;97569.09;;;-0.23;79.10
44148;BME280;29810;55.848;37.368;2023-03-03T19:01:43;97558.38;;;-0.42;79.38
44148;BME280;29810;55.848;37.368;2023-03-03T19:04:54;97565.59;;;-0.62;81.37
44148;BME280;29810;55.848;37.368;2023-03-03T19:08:01;97568.34;;;-0.75;82.30
44148;BME280;29810;55.848;37.368;2023-03-03T19:11:03;97565.91;;;-0.81;82.11
44148;BME280;29810;55.848;37.368;2023-03-03T19:14:28;97565.16;;;-0.86;83.03
44148;BME280;29810;55.848;37.368;2023-03-03T19:20:40;97570.63;;;-1.08;82.33
44148;BME280;29810;55.848;37.368;2023-03-03T19:24:04;97570.72;;;-1.14;82.68
44148;BME280;29810;55.848;37.368;2023-03-03T19:30:38;97572.69;;;-1.30;82.59
44148;BME280;29810;55.848;37.368;2023-03-03T19:33:49;97573.62;;;-1.36;83.06
44148;BME280;29810;55.848;37.368;2023-03-03T19:37:24;97572.84;;;-1.41;83.44
44148;BME280;29810;55.848;37.368;2023-03-03T19:47:35;97571.22;;;-1.45;84.21
44148;BME280;29810;55.848;37.368;2023-03-03T19:51:21;97564.47;;;-1.52;82.96
44148;BME280;29810;55.848;37.368;2023-03-03T19:58:08;97555.09;;;-1.50;83.61
44148;BME280;29810;55.848;37.368;2023-03-03T20:10:53;97552.22;;;-1.30;83.26
44148;BME280;29810;55.848;37.368;2023-03-03T20:14:17;97556.34;;;-1.21;83.04
44148;BME280;29810;55.848;37.368;2023-03-03T20:17:51;97561.47;;;-1.21;83.07
44148;BME280;29810;55.848;37.368;2023-03-03T20:21:28;97550.16;;;-1.08;82.31
44148;BME280;29810;55.848;37.368;2023-03-03T20:24:43;97548.41;;;-1.04;80.05
44148;BME280;29810;55.848;37.368;2023-03-03T20:34:21;97526.31;;;-1.10;83.80
44148;BME280;29810;55.848;37.368;2023-03-03T20:41:07;97526.22;;;-1.05;82.44
44148;BME280;29810;55.848;37.368;2023-03-03T20:51:24;97516.94;;;-1.09;78.50
44148;BME280;29810;55.848;37.368;2023-03-03T20:54:57;97515.06;;;-1.01;80.37
44148;BME280;29810;55.848;37.368;2023-03-03T20:58:19;97524.41;;;-0.98;79.75
44148;BME280;29810;55.848;37.368;2023-03-03T21:04:33;97509.16;;;-1.05;80.21
44148;BME280;29810;55.848;37.368;2023-03-03T21:07:36;97515.03;;;-0.98;81.74
44148;BME280;29810;55.848;37.368;2023-03-03T21:10:38;97516.63;;;-0.92;82.61
44148;BME280;29810;55.848;37.368;2023-03-03T21:16:45;97517.66;;;-1.03;82.07
44148;BME280;29810;55.848;37.368;2023-03-03T21:19:46;97499.84;;;-1.09;81.82
44148;BME280;29810;55.848;37.368;2023-03-03T21:22:48;97504.16;;;-1.11;82.43
44148;BME280;29810;55.848;37.368;2023-03-03T21:25:51;97495.25;;;-0.90;83.07
44148;BME280;29810;55.848;37.368;2023-03-03T21:29:00;97501.94;;;-0.82;81.89
44148;BME280;29810;55.848;37.368;2023-03-03T21:32:03;97484.94;;;-0.85;81.08
44148;BME280;29810;55.848;37.368;2023-03-03T21:35:09;97495.06;;;-0.79;82.05
44148;BME280;29810;55.848;37.368;2023-03-03T21:38:31;97495.03;;;-0.76;81.99
44148;BME280;29810;55.848;37.368;2023-03-03T21:45:08;97488.56;;;-0.52;80.32
44148;BME280;29810;55.848;37.368;2023-03-03T21:48:10;97487.81;;;-0.57;80.48
44148;BME280;29810;55.848;37.368;2023-03-03T21:51:12;97486.22;;;-0.62;81.42
44148;BME280;29810;55.848;37.368;2023-03-03T21:54:16;97481.31;;;-0.75;80.46